Time;durP1;ratioP1;P1;durP2;ratioP2;P2;SDS_P1;SDS_P2;PMS_P1;PMS_P2;Temp;Humidity;BMP_temperature;BMP_pressure;BME280_temperature;BME280_humidity;BME280_pressure;Samples;Min_cycle;Max_cycle;Signal;HPM_P1;HPM_P2
2022/10/20 05:00:07;;;;;;;11.97;10.77;;;13.80;97.20;;;;;;1714471;28;20655;-72
2022/10/20 05:01:00;;;;;;;11.38;9.70;;;13.90;97.20;;;;;;1708366;28;20222;-69
2022/10/20 05:01:52;;;;;;;11.63;10.00;;;13.90;97.20;;;;;;1713240;28;20198;-70
2022/10/20 05:02:43;;;;;;;11.70;10.00;;;13.80;97.20;;;;;;1711023;28;20221;-72
2022/10/20 05:03:35;;;;;;;14.00;9.00;;;13.90;97.20;;;;;;1713154;28;20288;-72
2022/10/20 05:04:27;;;;;;;13.10;9.75;;;13.90;97.20;;;;;;1714303;28;20792;-72
2022/10/20 05:05:19;;;;;;;11.07;9.45;;;13.90;97.20;;;;;;1707455;29;20209;-71
2022/10/20 05:06:11;;;;;;;14.05;9.48;;;13.90;97.20;;;;;;1707190;28;20673;-72
2022/10/20 05:07:03;;;;;;;10.73;9.50;;;13.90;97.20;;;;;;1707498;29;20289;-72
2022/10/20 05:07:54;;;;;;;10.73;9.65;;;13.80;97.20;;;;;;1707321;29;20206;-72
2022/10/20 05:08:48;;;;;;;9.60;8.70;;;13.80;97.20;;;;;;1707353;28;20207;-72
2022/10/20 05:09:38;;;;;;;11.00;10.00;;;13.80;97.20;;;;;;1707525;29;20661;-72
2022/10/20 05:10:30;;;;;;;10.33;9.33;;;13.80;97.20;;;;;;1707220;28;20645;-72
2022/10/20 05:11:23;;;;;;;10.07;9.10;;;13.80;97.20;;;;;;1707538;29;20210;-72
2022/10/20 05:12:14;;;;;;;14.40;13.00;;;13.80;97.20;;;;;;1707424;29;20203;-72
2022/10/20 05:13:05;;;;;;;13.57;12.27;;;13.80;97.20;;;;;;1707557;29;20206;-72
2022/10/20 05:13:57;;;;;;;12.97;11.67;;;13.80;97.20;;;;;;1707449;29;20205;-71
2022/10/20 05:14:48;;;;;;;19.17;11.93;;;13.80;97.20;;;;;;1707321;28;20580;-72
2022/10/20 05:15:41;;;;;;;13.83;12.43;;;13.80;97.20;;;;;;1706647;29;20206;-71
2022/10/20 05:16:32;;;;;;;15.40;13.88;;;13.90;97.20;;;;;;1706902;29;20217;-72
2022/10/20 05:17:23;;;;;;;15.52;14.00;;;13.90;97.20;;;;;;1707392;28;20664;-72
2022/10/20 05:18:14;;;;;;;14.23;12.90;;;13.90;97.20;;;;;;1707340;29;20582;-71
2022/10/20 05:19:06;;;;;;;15.87;14.33;;;13.80;97.20;;;;;;1709840;28;20198;-72
2022/10/20 05:19:56;;;;;;;15.15;13.65;;;13.80;97.20;;;;;;1714011;28;20209;-70
2022/10/20 05:20:48;;;;;;;15.73;14.13;;;13.80;97.20;;;;;;1714022;28;20722;-71
2022/10/20 05:21:39;;;;;;;16.63;14.85;;;13.80;97.20;;;;;;1714123;28;20202;-71
2022/10/20 05:22:31;;;;;;;16.47;14.80;;;13.80;97.20;;;;;;1714124;28;20213;-72
2022/10/20 05:23:22;;;;;;;16.58;15.00;;;13.80;97.20;;;;;;1714148;28;20210;-70
2022/10/20 05:24:15;;;;;;;16.40;14.83;;;13.80;97.20;;;;;;1713848;28;20223;-72
2022/10/20 05:25:07;;;;;;;16.60;15.07;;;13.80;97.20;;;;;;1714012;28;20306;-71
2022/10/20 05:26:02;;;;;;;16.38;14.73;;;13.80;97.20;;;;;;1714096;28;20198;-72
2022/10/20 05:26:52;;;;;;;15.27;13.77;;;13.80;97.20;;;;;;1713314;28;20668;-71
2022/10/20 05:27:44;;;;;;;15.03;13.63;;;13.80;97.20;;;;;;1714068;28;20655;-72
2022/10/20 05:28:35;;;;;;;16.85;13.55;;;13.80;97.20;;;;;;1713891;28;20441;-72
2022/10/20 05:29:27;;;;;;;14.93;13.47;;;13.80;97.20;;;;;;1709849;28;20217;-72
2022/10/20 05:30:17;;;;;;;15.10;13.70;;;13.80;97.20;;;;;;1707132;29;20668;-72
2022/10/20 05:31:11;;;;;;;15.20;13.70;;;13.80;97.20;;;;;;1707425;28;20552;-71
2022/10/20 05:32:02;;;;;;;15.45;14.05;;;13.80;97.20;;;;;;1707445;28;20233;-70
2022/10/20 05:32:53;;;;;;;15.53;14.03;;;13.80;97.20;;;;;;1707266;29;20221;-70
2022/10/20 05:33:46;;;;;;;15.40;13.70;;;13.80;97.20;;;;;;1707108;29;20206;-70
2022/10/20 05:34:37;;;;;;;16.25;14.15;;;13.80;97.20;;;;;;1706796;29;20199;-70
2022/10/20 05:35:29;;;;;;;16.25;14.68;;;13.80;97.20;;;;;;1706837;28;20203;-70
2022/10/20 05:36:23;;;;;;;16.35;14.85;;;13.80;97.20;;;;;;1706259;29;20209;-70
2022/10/20 05:37:14;;;;;;;16.25;14.77;;;13.80;97.20;;;;;;1706505;28;20214;-70
2022/10/20 05:38:06;;;;;;;15.83;14.33;;;13.80;97.20;;;;;;1706644;28;20211;-70
2022/10/20 05:38:56;;;;;;;15.48;13.98;;;13.80;97.20;;;;;;1706711;28;20214;-70
2022/10/20 05:39:48;;;;;;;16.33;14.73;;;13.80;97.20;;;;;;1713535;28;20208;-69
2022/10/20 05:40:39;;;;;;;16.80;15.10;;;13.80;97.20;;;;;;1713665;28;20990;-69
2022/10/20 05:41:32;;;;;;;16.37;14.67;;;13.80;97.20;;;;;;1713310;28;20835;-69
2022/10/20 05:42:23;;;;;;;17.05;15.02;;;13.80;97.20;;;;;;1713687;28;20216;-69
2022/10/20 05:43:15;;;;;;;16.50;14.37;;;13.80;97.20;;;;;;1713365;28;20212;-68
2022/10/20 05:44:07;;;;;;;15.80;14.20;;;13.90;97.20;;;;;;1713819;28;20202;-70
2022/10/20 05:44:59;;;;;;;15.93;14.00;;;13.80;97.20;;;;;;1714091;28;20656;-69
2022/10/20 05:45:53;;;;;;;18.27;13.90;;;13.80;97.20;;;;;;1713967;28;20202;-69
2022/10/20 05:46:46;;;;;;;15.77;14.35;;;13.90;97.20;;;;;;1713314;28;20209;-69
2022/10/20 05:47:36;;;;;;;16.95;15.30;;;13.80;97.20;;;;;;1713940;28;20201;-69
2022/10/20 05:48:28;;;;;;;15.17;13.67;;;13.90;97.20;;;;;;1713677;28;20624;-69
2022/10/20 05:49:19;;;;;;;15.80;14.30;;;13.90;97.20;;;;;;1711328;28;20243;-69
2022/10/20 05:50:11;;;;;;;16.20;14.60;;;13.90;97.20;;;;;;1707396;29;20202;-71
2022/10/20 05:51:10;;;;;;;16.63;14.93;;;13.90;97.20;;;;;;1707400;28;20210;-71
2022/10/20 05:52:01;;;;;;;22.05;15.05;;;13.90;97.20;;;;;;1707744;28;20210;-72
2022/10/20 05:52:52;;;;;;;16.38;14.65;;;13.90;97.20;;;;;;1707398;29;20657;-72
2022/10/20 05:53:45;;;;;;;22.95;14.07;;;13.90;97.20;;;;;;1713024;28;20194;-74
2022/10/20 05:54:36;;;;;;;20.13;14.38;;;13.90;97.20;;;;;;1713992;28;20202;-72
2022/10/20 05:55:28;;;;;;;16.00;14.30;;;13.90;97.20;;;;;;1713993;28;20205;-72
2022/10/20 05:56:20;;;;;;;16.77;15.05;;;13.90;97.20;;;;;;1711855;28;20209;-69
2022/10/20 05:57:12;;;;;;;16.25;14.55;;;13.90;97.20;;;;;;1712726;28;20206;-69
2022/10/20 05:58:03;;;;;;;15.32;13.75;;;13.90;97.20;;;;;;1707327;28;20215;-71
2022/10/20 05:58:55;;;;;;;21.73;14.90;;;13.90;97.20;;;;;;1707275;28;20281;-71
2022/10/20 05:59:46;;;;;;;17.02;15.23;;;13.90;97.20;;;;;;1718621;28;20193;-71
2022/10/20 06:00:40;;;;;;;15.97;14.40;;;13.90;97.20;;;;;;1720541;28;20221;-70
2022/10/20 06:01:39;;;;;;;15.65;13.90;;;13.90;97.20;;;;;;1720645;28;20205;-71
2022/10/20 06:02:32;;;;;;;19.67;15.68;;;13.90;97.20;;;;;;1720670;28;20228;-72
2022/10/20 06:03:22;;;;;;;17.48;14.88;;;13.90;97.20;;;;;;1720792;28;20201;-72
2022/10/20 06:04:16;;;;;;;15.73;14.23;;;13.90;97.20;;;;;;1720498;28;20205;-72
2022/10/20 06:05:07;;;;;;;16.00;14.43;;;13.90;97.20;;;;;;1720633;28;20688;-70
2022/10/20 06:05:59;;;;;;;16.35;14.70;;;13.80;97.20;;;;;;1720684;28;20208;-72
2022/10/20 06:06:51;;;;;;;15.85;14.35;;;13.80;97.20;;;;;;1719870;28;20209;-72
2022/10/20 06:07:43;;;;;;;16.70;14.30;;;13.80;97.20;;;;;;1720208;28;20690;-73
2022/10/20 06:08:35;;;;;;;17.48;15.45;;;13.80;97.20;;;;;;1720604;28;20723;-71
2022/10/20 06:09:26;;;;;;;15.65;13.65;;;13.80;97.20;;;;;;1719067;28;20201;-73
2022/10/20 06:10:17;;;;;;;17.47;14.53;;;13.80;97.20;;;;;;1713930;28;20208;-72
2022/10/20 06:11:10;;;;;;;21.63;14.55;;;13.80;97.20;;;;;;1713990;28;20210;-71
2022/10/20 06:12:01;;;;;;;16.40;14.82;;;13.80;97.20;;;;;;1714066;28;20567;-72
2022/10/20 06:12:52;;;;;;;16.27;14.60;;;13.80;97.20;;;;;;1713850;28;20202;-73
2022/10/20 06:13:44;;;;;;;18.73;15.30;;;13.80;97.20;;;;;;1713985;28;20280;-70
2022/10/20 06:14:35;;;;;;;16.80;15.00;;;13.80;97.20;;;;;;1713864;28;20197;-71
2022/10/20 06:15:27;;;;;;;16.43;14.90;;;13.80;97.20;;;;;;1712992;28;20281;-71
2022/10/20 06:16:19;;;;;;;16.88;15.25;;;13.80;97.20;;;;;;1709515;28;20194;-72
2022/10/20 06:17:11;;;;;;;16.38;14.25;;;13.80;97.20;;;;;;1708709;28;20202;-71
2022/10/20 06:18:03;;;;;;;16.50;14.73;;;13.80;97.20;;;;;;1712003;28;20195;-71
2022/10/20 06:18:57;;;;;;;17.67;15.85;;;13.80;97.20;;;;;;1711692;28;20194;-72
2022/10/20 06:19:48;;;;;;;16.05;14.57;;;13.80;97.20;;;;;;1712931;28;20213;-71
2022/10/20 06:20:40;;;;;;;17.10;15.40;;;13.80;97.20;;;;;;1707294;29;20224;-71
2022/10/20 06:21:32;;;;;;;15.40;13.90;;;13.80;97.20;;;;;;1707304;29;20221;-71
2022/10/20 06:22:24;;;;;;;19.65;15.15;;;13.80;97.20;;;;;;1707244;29;20544;-72
2022/10/20 06:23:14;;;;;;;17.63;15.80;;;13.80;97.20;;;;;;1708165;28;20224;-72
2022/10/20 06:24:07;;;;;;;17.17;14.67;;;13.80;97.20;;;;;;1709604;28;20207;-71
2022/10/20 06:24:58;;;;;;;17.88;14.90;;;13.80;97.20;;;;;;1713991;28;20201;-71
2022/10/20 06:25:49;;;;;;;17.90;16.00;;;13.80;97.20;;;;;;1713897;28;20233;-71
2022/10/20 06:26:41;;;;;;;22.58;15.18;;;13.80;97.20;;;;;;1713701;28;20448;-73
2022/10/20 06:27:33;;;;;;;17.65;15.40;;;13.80;97.20;;;;;;1716045;28;20201;-72
2022/10/20 06:28:24;;;;;;;17.83;14.55;;;13.80;97.20;;;;;;1716217;28;20209;-71
2022/10/20 06:29:17;;;;;;;17.70;15.70;;;13.80;97.20;;;;;;1715406;28;20705;-71
2022/10/20 06:30:09;;;;;;;18.67;16.77;;;13.80;97.20;;;;;;1715884;28;20217;-72
2022/10/20 06:31:01;;;;;;;16.55;14.75;;;13.80;97.20;;;;;;1714310;28;20221;-71
2022/10/20 06:31:54;;;;;;;16.80;15.20;;;13.80;97.20;;;;;;1715954;28;20212;-72
2022/10/20 06:32:46;;;;;;;16.88;15.00;;;13.80;97.20;;;;;;1716049;28;20206;-72
2022/10/20 06:33:38;;;;;;;16.17;14.45;;;13.80;97.20;;;;;;1712588;28;20213;-71
2022/10/20 06:34:30;;;;;;;15.63;14.05;;;13.80;97.20;;;;;;1713553;28;20790;-71
2022/10/20 06:35:21;;;;;;;17.08;15.27;;;13.80;97.20;;;;;;1710779;28;20941;-71
2022/10/20 06:36:14;;;;;;;17.33;15.00;;;13.80;97.20;;;;;;1715151;28;20564;-70
2022/10/20 06:37:05;;;;;;;16.20;14.50;;;13.80;97.20;;;;;;1715642;28;20532;-72
2022/10/20 06:37:57;;;;;;;16.47;14.53;;;13.90;97.20;;;;;;1715593;28;20205;-71
2022/10/20 06:38:51;;;;;;;15.98;14.40;;;13.90;97.20;;;;;;1715661;28;20800;-72
2022/10/20 06:39:42;;;;;;;15.77;14.18;;;13.90;97.20;;;;;;1716056;28;20604;-71
2022/10/20 06:40:33;;;;;;;15.68;14.15;;;13.80;97.20;;;;;;1715782;28;20222;-72
2022/10/20 06:41:27;;;;;;;16.30;14.67;;;13.90;97.20;;;;;;1715413;28;20209;-71
2022/10/20 06:42:17;;;;;;;16.45;14.75;;;13.90;97.20;;;;;;1715982;28;20581;-71
2022/10/20 06:43:09;;;;;;;16.93;14.77;;;13.90;97.20;;;;;;1715240;28;20201;-72
2022/10/20 06:44:00;;;;;;;17.27;14.77;;;13.90;97.20;;;;;;1715942;28;20201;-71
2022/10/20 06:44:53;;;;;;;15.53;13.90;;;13.90;97.20;;;;;;1714535;28;20303;-72
2022/10/20 06:45:53;;;;;;;14.57;13.18;;;13.90;97.20;;;;;;1711870;28;20489;-72
2022/10/20 06:46:45;;;;;;;17.73;13.45;;;13.90;97.20;;;;;;1708614;28;20206;-70
2022/10/20 06:47:36;;;;;;;16.58;14.60;;;13.90;97.20;;;;;;1709218;28;20209;-71
2022/10/20 06:48:28;;;;;;;15.60;14.10;;;14.00;97.20;;;;;;1709226;29;20686;-72
2022/10/20 06:49:21;;;;;;;15.65;14.00;;;14.00;97.20;;;;;;1709376;29;20225;-72
2022/10/20 06:50:12;;;;;;;15.85;14.35;;;14.00;97.20;;;;;;1709143;29;20206;-72
2022/10/20 06:51:05;;;;;;;15.70;13.98;;;14.00;97.20;;;;;;1712317;28;20201;-72
2022/10/20 06:51:57;;;;;;;15.95;14.32;;;14.00;97.20;;;;;;1715847;28;20204;-72
2022/10/20 06:52:47;;;;;;;15.55;13.95;;;14.00;97.20;;;;;;1715779;28;20224;-72
2022/10/20 06:53:40;;;;;;;17.37;14.60;;;14.00;97.20;;;;;;1715973;28;20221;-71
2022/10/20 06:54:31;;;;;;;18.25;15.70;;;14.10;97.20;;;;;;1715973;28;20688;-71
2022/10/20 06:55:23;;;;;;;15.57;14.17;;;14.10;97.20;;;;;;1715938;28;20690;-72
2022/10/20 06:56:15;;;;;;;14.77;13.27;;;14.10;97.20;;;;;;1715321;28;20230;-71
2022/10/20 06:57:07;;;;;;;16.50;14.82;;;14.10;97.20;;;;;;1715652;28;20671;-71
2022/10/20 06:57:58;;;;;;;17.52;13.40;;;14.10;97.20;;;;;;1715756;28;20209;-71
2022/10/20 06:58:51;;;;;;;18.73;15.17;;;14.10;97.20;;;;;;1715928;28;20208;-71
2022/10/20 06:59:42;;;;;;;15.60;13.38;;;14.10;97.20;;;;;;1715987;28;20202;-72
2022/10/20 07:00:34;;;;;;;15.77;14.10;;;14.20;97.20;;;;;;1714104;28;20221;-71
2022/10/20 07:01:26;;;;;;;15.13;13.63;;;14.20;97.20;;;;;;1715850;28;20220;-72
2022/10/20 07:02:18;;;;;;;16.13;14.30;;;14.20;97.20;;;;;;1713347;28;20642;-72
2022/10/20 07:03:09;;;;;;;19.50;14.77;;;14.20;97.20;;;;;;1709242;29;20210;-72
2022/10/20 07:04:03;;;;;;;15.57;13.57;;;14.20;97.20;;;;;;1709253;29;20206;-71
2022/10/20 07:04:55;;;;;;;15.75;14.15;;;14.20;97.20;;;;;;1709059;29;20262;-71
2022/10/20 07:05:47;;;;;;;15.75;14.15;;;14.20;97.20;;;;;;1708735;29;20214;-71
2022/10/20 07:06:40;;;;;;;14.52;13.02;;;14.30;97.20;;;;;;1707851;28;20202;-72
2022/10/20 07:07:32;;;;;;;14.85;13.27;;;14.30;97.20;;;;;;1708966;29;20552;-72
2022/10/20 07:08:25;;;;;;;16.40;14.70;;;14.30;97.20;;;;;;1709237;28;20206;-71
2022/10/20 07:09:19;;;;;;;17.02;15.23;;;14.30;97.20;;;;;;1709199;29;20246;-71
2022/10/20 07:10:10;;;;;;;19.15;15.20;;;14.40;97.20;;;;;;1709020;28;20211;-72
2022/10/20 07:11:04;;;;;;;17.80;16.10;;;14.40;97.20;;;;;;1715507;28;20826;-72
2022/10/20 07:11:56;;;;;;;16.13;14.48;;;14.30;97.20;;;;;;1715800;28;20205;-72
2022/10/20 07:12:46;;;;;;;17.70;15.90;;;14.40;97.20;;;;;;1715900;28;20205;-71
2022/10/20 07:13:39;;;;;;;17.27;15.47;;;14.40;97.20;;;;;;1715861;28;20208;-71
2022/10/20 07:14:30;;;;;;;16.23;14.57;;;14.40;97.20;;;;;;1715697;28;20210;-71
2022/10/20 07:15:22;;;;;;;17.70;15.73;;;14.40;97.20;;;;;;1715935;28;20296;-71
2022/10/20 07:16:15;;;;;;;17.20;15.35;;;14.40;97.20;;;;;;1715133;28;20449;-71
2022/10/20 07:17:07;;;;;;;17.92;15.30;;;14.40;97.20;;;;;;1715610;28;20264;-72
2022/10/20 07:17:58;;;;;;;16.55;15.02;;;14.40;97.20;;;;;;1715812;28;20205;-71
2022/10/20 07:18:50;;;;;;;16.20;14.43;;;14.40;97.20;;;;;;1715834;28;20216;-70
2022/10/20 07:19:40;;;;;;;17.45;15.75;;;14.40;97.20;;;;;;1715841;28;20201;-71
2022/10/20 07:20:33;;;;;;;16.93;15.23;;;14.40;97.20;;;;;;1713919;28;20226;-71
2022/10/20 07:21:26;;;;;;;17.58;15.20;;;14.40;97.20;;;;;;1715810;28;20823;-71
2022/10/20 07:22:18;;;;;;;17.25;15.35;;;14.40;97.20;;;;;;1715721;28;20260;-71
2022/10/20 07:23:09;;;;;;;17.73;15.88;;;14.40;97.20;;;;;;1715848;28;20588;-71
2022/10/20 07:24:01;;;;;;;19.35;17.35;;;14.40;97.20;;;;;;1715816;28;20201;-71
2022/10/20 07:24:53;;;;;;;18.45;16.55;;;14.50;97.20;;;;;;1715668;28;20205;-71
2022/10/20 07:25:45;;;;;;;19.40;17.40;;;14.50;97.20;;;;;;1715869;28;20202;-72
2022/10/20 07:26:39;;;;;;;18.38;16.38;;;14.50;97.20;;;;;;1715135;28;20198;-71
2022/10/20 07:27:30;;;;;;;17.45;15.07;;;14.50;97.20;;;;;;1715171;28;20214;-72
2022/10/20 07:28:22;;;;;;;17.10;15.30;;;14.50;97.20;;;;;;1715773;28;20201;-71
2022/10/20 07:29:13;;;;;;;18.17;15.02;;;14.50;97.20;;;;;;1715752;28;20244;-71
2022/10/20 07:30:06;;;;;;;16.38;14.68;;;14.50;97.20;;;;;;1715955;28;20635;-72
2022/10/20 07:31:00;;;;;;;19.20;16.13;;;14.50;97.20;;;;;;1714805;28;20225;-72
2022/10/20 07:31:52;;;;;;;17.13;15.43;;;14.50;97.20;;;;;;1715686;28;20656;-70
2022/10/20 07:32:43;;;;;;;16.95;14.65;;;14.50;97.20;;;;;;1715791;28;20212;-71
2022/10/20 07:33:35;;;;;;;18.40;15.20;;;14.50;97.20;;;;;;1715781;28;20245;-72
2022/10/20 07:34:26;;;;;;;17.58;14.52;;;14.60;97.20;;;;;;1715674;28;20228;-71
2022/10/20 07:35:18;;;;;;;19.37;15.07;;;14.60;97.20;;;;;;1715710;28;20277;-71
2022/10/20 07:36:16;;;;;;;16.40;14.68;;;14.60;97.20;;;;;;1715192;28;20935;-71
2022/10/20 07:37:08;;;;;;;15.98;14.38;;;14.60;97.20;;;;;;1715668;28;20233;-71
2022/10/20 07:37:59;;;;;;;16.73;15.05;;;14.70;97.20;;;;;;1715528;28;20210;-70
2022/10/20 07:38:52;;;;;;;17.20;15.20;;;14.70;97.20;;;;;;1713619;28;20289;-71
2022/10/20 07:39:44;;;;;;;16.13;14.63;;;14.70;97.20;;;;;;1714874;28;20441;-71
2022/10/20 07:40:35;;;;;;;16.95;15.07;;;14.80;97.20;;;;;;1713021;28;20734;-70
2022/10/20 07:41:27;;;;;;;15.77;14.07;;;14.80;97.20;;;;;;1714825;28;20690;-72
2022/10/20 07:42:18;;;;;;;16.58;14.40;;;14.80;97.20;;;;;;1714845;28;20449;-72
2022/10/20 07:43:10;;;;;;;16.70;15.13;;;14.90;97.20;;;;;;1708614;28;20290;-72
2022/10/20 07:44:01;;;;;;;15.30;13.70;;;14.90;97.20;;;;;;1708121;29;20206;-71
2022/10/20 07:44:53;;;;;;;16.30;14.60;;;14.90;97.20;;;;;;1707933;29;20682;-70
2022/10/20 07:45:43;;;;;;;16.13;14.52;;;15.00;97.20;;;;;;1708133;29;20809;-71
2022/10/20 07:46:35;;;;;;;15.73;14.00;;;15.00;97.20;;;;;;1707419;29;20570;-72
2022/10/20 07:47:26;;;;;;;16.30;14.65;;;15.00;97.20;;;;;;1707774;29;20481;-72
2022/10/20 07:48:18;;;;;;;15.40;13.90;;;15.10;97.20;;;;;;1707937;29;20206;-71
2022/10/20 07:49:09;;;;;;;15.27;13.50;;;15.10;97.20;;;;;;1707913;29;20206;-73
2022/10/20 07:50:00;;;;;;;14.55;13.15;;;15.10;97.20;;;;;;1708143;29;20199;-74
2022/10/20 07:50:51;;;;;;;17.08;13.85;;;15.20;97.20;;;;;;1710965;28;20225;-72
2022/10/20 07:51:44;;;;;;;14.37;12.77;;;15.20;97.20;;;;;;1714615;28;20193;-72
2022/10/20 07:52:35;;;;;;;14.15;12.55;;;15.30;97.20;;;;;;1714524;28;20216;-71
2022/10/20 07:53:27;;;;;;;14.10;12.70;;;15.30;97.20;;;;;;1714689;28;20202;-71
2022/10/20 07:54:18;;;;;;;14.82;13.52;;;15.30;97.20;;;;;;1714601;28;20206;-71
2022/10/20 07:55:09;;;;;;;14.70;13.20;;;15.30;97.20;;;;;;1714697;28;20672;-70
2022/10/20 07:56:00;;;;;;;16.42;12.85;;;15.40;97.20;;;;;;1714624;28;20206;-71
2022/10/20 07:56:52;;;;;;;18.67;13.87;;;15.40;97.20;;;;;;1713790;28;20743;-72
2022/10/20 07:57:43;;;;;;;13.82;12.40;;;15.50;97.20;;;;;;1714569;28;20456;-72
2022/10/20 07:58:34;;;;;;;13.43;12.13;;;15.50;97.20;;;;;;1714473;28;20213;-72
2022/10/20 07:59:25;;;;;;;13.57;11.77;;;15.50;97.20;;;;;;1714566;28;20221;-72
2022/10/20 08:00:17;;;;;;;12.53;11.40;;;15.60;97.20;;;;;;1714558;28;20201;-72
2022/10/20 08:01:08;;;;;;;13.82;12.43;;;15.60;97.20;;;;;;1708670;28;20454;-70
2022/10/20 08:02:00;;;;;;;13.70;12.30;;;15.60;97.20;;;;;;1708036;29;20230;-72
2022/10/20 08:02:51;;;;;;;12.75;11.65;;;15.60;97.20;;;;;;1707919;29;20694;-72
2022/10/20 08:03:43;;;;;;;12.23;11.07;;;15.60;97.20;;;;;;1707990;29;20321;-72
2022/10/20 08:04:35;;;;;;;12.90;11.60;;;15.70;97.20;;;;;;1707864;29;20443;-72
2022/10/20 08:05:26;;;;;;;13.45;12.05;;;15.70;97.20;;;;;;1707751;28;20311;-74
2022/10/20 08:06:17;;;;;;;13.38;11.95;;;15.70;97.20;;;;;;1707533;29;20203;-72
2022/10/20 08:07:10;;;;;;;16.17;12.40;;;15.70;97.20;;;;;;1707728;29;20215;-71
2022/10/20 08:08:02;;;;;;;12.10;10.90;;;15.70;97.20;;;;;;1707869;28;20676;-72
2022/10/20 08:08:53;;;;;;;13.32;12.02;;;15.80;97.20;;;;;;1707754;29;20206;-72
2022/10/20 08:09:46;;;;;;;12.80;11.50;;;15.80;97.20;;;;;;1707962;29;20657;-71
2022/10/20 08:10:36;;;;;;;12.23;11.13;;;15.80;97.20;;;;;;1709101;28;20227;-71
2022/10/20 08:11:28;;;;;;;14.30;12.30;;;15.80;97.20;;;;;;1721363;28;20208;-75
2022/10/20 08:12:19;;;;;;;12.00;10.95;;;15.80;97.20;;;;;;1708066;28;20472;-72
2022/10/20 08:13:11;;;;;;;15.60;12.33;;;15.90;97.20;;;;;;1712020;28;20206;-71
2022/10/20 08:14:03;;;;;;;14.00;12.35;;;15.90;97.20;;;;;;1713841;28;20224;-71
2022/10/20 08:14:54;;;;;;;13.32;11.90;;;15.90;97.20;;;;;;1713038;28;20220;-72
2022/10/20 08:15:45;;;;;;;12.93;11.33;;;15.90;97.20;;;;;;1714560;28;20194;-72
2022/10/20 08:16:36;;;;;;;12.65;11.45;;;15.90;97.20;;;;;;1713717;28;20209;-72
2022/10/20 08:17:28;;;;;;;13.80;11.60;;;15.90;97.20;;;;;;1714322;28;20213;-72
2022/10/20 08:18:19;;;;;;;12.20;11.10;;;16.00;97.20;;;;;;1714551;28;20601;-72
2022/10/20 08:19:10;;;;;;;13.45;11.88;;;16.00;97.20;;;;;;1714494;28;20201;-72
2022/10/20 08:20:03;;;;;;;13.27;12.07;;;16.00;97.20;;;;;;1714445;28;20216;-73
2022/10/20 08:21:04;;;;;;;12.50;11.40;;;16.00;97.20;;;;;;1713696;28;20222;-71
2022/10/20 08:21:55;;;;;;;13.00;11.80;;;16.10;97.20;;;;;;1714556;28;20193;-72
2022/10/20 08:22:49;;;;;;;12.60;11.30;;;16.10;97.20;;;;;;1714457;28;20198;-72
2022/10/20 08:23:40;;;;;;;11.52;10.52;;;16.10;97.20;;;;;;1714373;28;20202;-72
2022/10/20 08:24:32;;;;;;;12.48;11.35;;;16.20;97.20;;;;;;1714464;28;20194;-72
2022/10/20 08:25:23;;;;;;;12.15;10.95;;;16.20;97.20;;;;;;1714431;28;20222;-72
2022/10/20 08:26:18;;;;;;;12.32;11.20;;;16.30;97.20;;;;;;1714251;28;20233;-72
2022/10/20 08:27:09;;;;;;;18.52;11.38;;;16.30;97.20;;;;;;1714249;28;20206;-72
2022/10/20 08:28:01;;;;;;;11.43;10.30;;;16.30;97.20;;;;;;1714422;28;20205;-72
2022/10/20 08:28:53;;;;;;;12.68;11.35;;;16.40;97.20;;;;;;1714072;28;20453;-73
2022/10/20 08:29:45;;;;;;;13.35;11.95;;;16.40;97.20;;;;;;1714640;28;20198;-71
2022/10/20 08:30:36;;;;;;;11.75;10.85;;;16.50;97.20;;;;;;1713557;28;20226;-72
2022/10/20 08:31:28;;;;;;;12.00;10.80;;;16.50;97.20;;;;;;1714283;28;20205;-72
2022/10/20 08:32:19;;;;;;;12.32;11.02;;;16.60;97.20;;;;;;1714378;28;20213;-72
2022/10/20 08:33:10;;;;;;;11.37;10.40;;;16.60;97.20;;;;;;1714328;28;20197;-72
2022/10/20 08:34:01;;;;;;;17.75;11.65;;;16.70;97.20;;;;;;1713194;28;20208;-70
2022/10/20 08:34:53;;;;;;;12.00;10.80;;;16.70;97.20;;;;;;1713770;28;20201;-72
2022/10/20 08:35:43;;;;;;;12.68;10.77;;;16.70;97.20;;;;;;1713804;28;20656;-72
2022/10/20 08:36:36;;;;;;;12.63;11.40;;;16.80;97.20;;;;;;1713156;28;20572;-73
2022/10/20 08:37:29;;;;;;;12.45;11.15;;;16.80;97.20;;;;;;1714109;28;20289;-73
2022/10/20 08:38:22;;;;;;;13.40;11.25;;;16.80;97.20;;;;;;1713702;28;20690;-72
2022/10/20 08:39:13;;;;;;;12.20;10.95;;;16.80;97.20;;;;;;1713757;28;20212;-72
2022/10/20 08:40:06;;;;;;;10.97;10.07;;;16.80;97.20;;;;;;1713853;28;20692;-72
2022/10/20 08:40:57;;;;;;;13.60;11.23;;;16.90;97.20;;;;;;1713519;28;20225;-73
2022/10/20 08:41:50;;;;;;;12.13;11.02;;;16.90;97.20;;;;;;1714347;28;20236;-72
2022/10/20 08:42:44;;;;;;;11.82;10.82;;;16.90;97.20;;;;;;1714404;28;20206;-72
2022/10/20 08:43:41;;;;;;;15.27;12.10;;;16.90;97.20;;;;;;1714158;28;20264;-72
2022/10/20 08:44:34;;;;;;;12.88;11.70;;;17.00;97.20;;;;;;1713647;28;20217;-72
2022/10/20 08:45:28;;;;;;;13.20;11.73;;;17.00;97.20;;;;;;1714085;28;20211;-72
2022/10/20 08:46:22;;;;;;;11.57;10.57;;;17.00;97.20;;;;;;1713915;28;20201;-72
2022/10/20 08:47:23;;;;;;;11.85;10.75;;;17.00;97.20;;;;;;1714116;28;20202;-72
2022/10/20 08:48:18;;;;;;;12.40;11.27;;;17.10;97.20;;;;;;1714163;28;20206;-72
2022/10/20 08:49:21;;;;;;;12.63;11.38;;;17.10;97.20;;;;;;1714318;28;20204;-73
2022/10/20 08:50:16;;;;;;;13.85;11.63;;;17.10;97.20;;;;;;1714073;28;20210;-72
2022/10/20 08:51:15;;;;;;;15.77;11.35;;;17.20;97.20;;;;;;1709724;28;20242;-73
2022/10/20 08:52:12;;;;;;;12.95;10.95;;;17.20;97.20;;;;;;1707725;29;20242;-73
2022/10/20 08:53:03;;;;;;;12.73;11.43;;;17.20;97.20;;;;;;1707748;29;20302;-72
2022/10/20 08:53:58;;;;;;;12.53;11.30;;;17.20;97.20;;;;;;1707527;29;20768;-72
2022/10/20 08:54:52;;;;;;;12.88;11.27;;;17.30;97.20;;;;;;1707671;29;20239;-74
2022/10/20 08:55:45;;;;;;;12.52;11.20;;;17.30;97.20;;;;;;1707613;28;20205;-74
2022/10/20 08:56:35;;;;;;;13.23;10.90;;;17.30;97.20;;;;;;1707003;28;20202;-72
2022/10/20 08:57:30;;;;;;;12.40;11.30;;;17.30;97.20;;;;;;1707351;29;20237;-72
2022/10/20 08:58:24;;;;;;;15.25;11.52;;;17.30;97.20;;;;;;1707634;29;20454;-72
2022/10/20 08:59:24;;;;;;;14.95;11.77;;;17.30;97.20;;;;;;1707655;28;20207;-72
2022/10/20 09:00:18;;;;;;;12.27;11.18;;;17.30;97.20;;;;;;1707459;29;20762;-72
2022/10/20 09:01:18;;;;;;;11.35;10.25;;;17.30;97.20;;;;;;1711883;28;20208;-72
2022/10/20 09:02:15;;;;;;;12.68;11.48;;;17.30;97.20;;;;;;1714258;28;20660;-71
2022/10/20 09:03:15;;;;;;;12.45;11.25;;;17.40;97.20;;;;;;1714248;28;20660;-72
2022/10/20 09:04:14;;;;;;;11.15;10.05;;;17.40;97.20;;;;;;1714339;28;20201;-71
2022/10/20 09:05:08;;;;;;;12.13;9.85;;;17.40;97.20;;;;;;1714242;28;20206;-72
2022/10/20 09:06:07;;;;;;;12.43;10.55;;;17.50;97.20;;;;;;1714166;28;20729;-73
2022/10/20 09:07:01;;;;;;;11.77;10.23;;;17.50;97.20;;;;;;1713801;28;20214;-72
2022/10/20 09:07:54;;;;;;;11.40;10.27;;;17.50;97.20;;;;;;1713994;28;20557;-73
2022/10/20 09:08:46;;;;;;;9.68;8.70;;;17.50;97.20;;;;;;1714141;28;20209;-73
2022/10/20 09:09:39;;;;;;;11.15;9.80;;;17.50;97.20;;;;;;1714211;28;20766;-72
2022/10/20 09:10:34;;;;;;;10.02;8.90;;;17.60;97.20;;;;;;1714080;28;20206;-73
2022/10/20 09:11:33;;;;;;;10.55;9.55;;;17.60;97.20;;;;;;1713561;28;20206;-73
2022/10/20 09:12:24;;;;;;;9.90;8.90;;;17.60;97.20;;;;;;1714264;28;20561;-72
2022/10/20 09:13:22;;;;;;;9.13;8.32;;;17.60;97.20;;;;;;1714263;28;20208;-72
2022/10/20 09:14:15;;;;;;;9.82;8.93;;;17.70;97.20;;;;;;1714105;28;20209;-70
2022/10/20 09:15:10;;;;;;;9.32;8.52;;;17.70;97.20;;;;;;1714085;28;20943;-72
2022/10/20 09:16:06;;;;;;;10.20;9.20;;;17.70;97.20;;;;;;1713998;28;20206;-73
2022/10/20 09:16:57;;;;;;;9.65;8.80;;;17.70;97.20;;;;;;1713314;28;20206;-72
2022/10/20 09:17:51;;;;;;;11.90;8.80;;;17.70;97.20;;;;;;1714088;28;20206;-73
2022/10/20 09:18:42;;;;;;;12.65;11.45;;;17.70;97.20;;;;;;1714021;28;20198;-73
2022/10/20 09:19:35;;;;;;;9.60;8.70;;;17.70;97.20;;;;;;1713977;28;20205;-73
2022/10/20 09:20:30;;;;;;;9.60;8.70;;;17.70;97.20;;;;;;1714148;28;20214;-73
2022/10/20 09:21:23;;;;;;;8.25;7.45;;;17.70;97.20;;;;;;1708287;28;20211;-73
2022/10/20 09:22:14;;;;;;;7.63;6.93;;;17.70;97.20;;;;;;1707204;29;20213;-73
2022/10/20 09:23:10;;;;;;;8.50;7.63;;;17.70;97.20;;;;;;1707379;28;20210;-73
2022/10/20 09:24:03;;;;;;;8.63;7.82;;;17.70;97.20;;;;;;1707575;29;20695;-73
2022/10/20 09:24:57;;;;;;;9.05;8.15;;;17.60;97.20;;;;;;1707395;29;20203;-73
2022/10/20 09:25:50;;;;;;;13.38;8.23;;;17.60;97.20;;;;;;1707296;28;20230;-73